Time;durP1;ratioP1;P1;durP2;ratioP2;P2;SDS_P1;SDS_P2;PMS_P1;PMS_P2;Temp;Humidity;BMP_temperature;BMP_pressure;BME280_temperature;BME280_humidity;BME280_pressure;Samples;Min_cycle;Max_cycle;Signal;HPM_P1;HPM_P2
2023/12/30 00:01:36;;;;;;;11.65;1.52;;;6.90;99.90;;;;;;5096082;28;20039;-78
2023/12/30 00:04:02;;;;;;;16.05;1.92;;;6.90;99.90;;;;;;5145919;27;20032;-79
2023/12/30 00:06:28;;;;;;;7.68;2.00;;;6.90;99.90;;;;;;5096504;28;20035;-78
2023/12/30 00:08:54;;;;;;;8.02;1.48;;;6.90;99.90;;;;;;5147400;27;20119;-78
2023/12/30 00:11:19;;;;;;;10.57;1.63;;;6.90;99.90;;;;;;5129298;27;20044;-78
2023/12/30 00:13:45;;;;;;;6.93;1.27;;;7.00;99.90;;;;;;5145061;27;20050;-78
2023/12/30 00:16:11;;;;;;;10.30;2.13;;;6.90;99.90;;;;;;5120568;27;20043;-78
2023/12/30 00:18:37;;;;;;;8.80;1.40;;;7.00;99.90;;;;;;5124214;27;20036;-78
2023/12/30 00:21:03;;;;;;;8.05;1.92;;;7.00;99.90;;;;;;5129050;27;20070;-78
2023/12/30 00:23:28;;;;;;;7.72;1.33;;;7.00;99.90;;;;;;5113269;28;20127;-78
2023/12/30 00:25:54;;;;;;;5.22;1.20;;;7.10;99.90;;;;;;5095109;28;20040;-78
2023/12/30 00:28:21;;;;;;;8.48;1.40;;;7.10;99.90;;;;;;5129596;27;20443;-78
2023/12/30 00:30:47;;;;;;;8.63;1.85;;;7.00;99.90;;;;;;5096011;28;20035;-78
2023/12/30 00:33:13;;;;;;;9.05;1.20;;;7.00;99.90;;;;;;5147891;27;20035;-78
2023/12/30 00:35:38;;;;;;;5.55;1.70;;;7.00;99.90;;;;;;5146169;27;20499;-78
2023/12/30 00:38:04;;;;;;;4.90;0.88;;;7.10;99.90;;;;;;5094920;28;20041;-78
2023/12/30 00:40:29;;;;;;;6.50;1.42;;;7.30;99.90;;;;;;5095342;27;20066;-79
2023/12/30 00:42:55;;;;;;;4.18;0.88;;;7.20;99.90;;;;;;5113012;28;20071;-79
2023/12/30 00:45:21;;;;;;;10.43;1.73;;;7.10;99.90;;;;;;5112273;28;20402;-79
2023/12/30 00:47:46;;;;;;;7.32;1.20;;;7.10;99.90;;;;;;5081272;28;20040;-78
2023/12/30 00:50:13;;;;;;;7.28;1.10;;;7.20;99.90;;;;;;5144561;27;20127;-78
2023/12/30 00:52:38;;;;;;;4.57;1.05;;;7.10;99.90;;;;;;5128987;27;20537;-78
2023/12/30 00:55:04;;;;;;;5.97;1.27;;;7.00;99.90;;;;;;5147552;27;20039;-78
2023/12/30 00:57:30;;;;;;;8.90;1.38;;;7.00;99.90;;;;;;5144368;27;20119;-78
2023/12/30 00:59:56;;;;;;;8.38;1.75;;;6.90;99.90;;;;;;5097009;27;20170;-78
2023/12/30 01:02:21;;;;;;;9.55;1.77;;;6.90;99.90;;;;;;5107264;28;20408;-78
2023/12/30 01:04:47;;;;;;;12.35;1.50;;;7.00;99.90;;;;;;5095724;28;20039;-78
2023/12/30 01:07:13;;;;;;;6.25;1.25;;;6.90;99.90;;;;;;5105051;28;20458;-78
2023/12/30 01:09:38;;;;;;;5.90;1.02;;;6.90;99.90;;;;;;5108744;27;20036;-78
2023/12/30 01:12:05;;;;;;;4.60;1.10;;;6.90;99.90;;;;;;5129551;27;20522;-78
2023/12/30 01:14:30;;;;;;;3.97;1.10;;;6.90;99.90;;;;;;5112542;28;20035;-78
2023/12/30 01:16:56;;;;;;;6.57;1.25;;;7.00;99.90;;;;;;5094941;28;20035;-78
2023/12/30 01:19:24;;;;;;;9.60;1.55;;;7.00;99.90;;;;;;5110264;28;20039;-78
2023/12/30 01:21:49;;;;;;;6.22;1.63;;;7.10;99.90;;;;;;5111231;28;20043;-78
2023/12/30 01:24:15;;;;;;;8.73;1.40;;;7.00;99.90;;;;;;5111498;27;20043;-78
2023/12/30 01:26:41;;;;;;;5.40;1.30;;;6.90;99.90;;;;;;5129540;27;20036;-78
2023/12/30 01:29:07;;;;;;;8.23;2.15;;;6.90;99.90;;;;;;5128351;27;20396;-78
2023/12/30 01:31:34;;;;;;;6.32;1.20;;;6.90;99.90;;;;;;5110597;28;20039;-78
2023/12/30 01:33:59;;;;;;;6.80;1.10;;;6.90;99.90;;;;;;5094666;28;20074;-78
2023/12/30 01:36:25;;;;;;;4.55;0.98;;;6.80;99.90;;;;;;5111550;28;20075;-78
2023/12/30 01:38:51;;;;;;;5.72;0.98;;;6.90;99.90;;;;;;5127289;27;20110;-78
2023/12/30 01:41:18;;;;;;;6.70;1.58;;;6.80;99.90;;;;;;5115877;28;20038;-78
2023/12/30 01:43:44;;;;;;;5.45;0.90;;;6.90;99.90;;;;;;5094516;28;20046;-78
2023/12/30 01:46:10;;;;;;;9.40;1.33;;;6.90;99.90;;;;;;5146548;27;20044;-78
2023/12/30 01:48:36;;;;;;;7.40;1.10;;;6.90;99.90;;;;;;5110613;28;20050;-78
2023/12/30 01:51:03;;;;;;;6.03;1.40;;;6.90;99.90;;;;;;5117368;27;20058;-78
2023/12/30 01:53:32;;;;;;;7.93;1.42;;;6.90;99.90;;;;;;5111410;28;20063;-78
2023/12/30 01:55:58;;;;;;;5.15;1.35;;;6.80;99.90;;;;;;5129291;28;20036;-78
2023/12/30 01:58:24;;;;;;;11.23;1.70;;;6.80;99.90;;;;;;5128601;28;20055;-78
2023/12/30 02:00:54;;;;;;;8.80;1.63;;;6.80;99.90;;;;;;5098831;28;20051;-79
2023/12/30 02:03:21;;;;;;;12.93;1.60;;;6.80;99.90;;;;;;5127257;28;20487;-79
2023/12/30 02:05:48;;;;;;;4.35;1.08;;;6.70;99.90;;;;;;5111493;28;20042;-78
2023/12/30 02:08:17;;;;;;;8.70;1.30;;;6.70;99.90;;;;;;5129722;27;20039;-78
2023/12/30 02:10:43;;;;;;;7.35;1.48;;;6.80;99.90;;;;;;5102005;28;20085;-78
2023/12/30 02:13:09;;;;;;;10.07;1.48;;;6.90;99.90;;;;;;5122512;27;20512;-78
2023/12/30 02:15:35;;;;;;;5.28;1.30;;;7.00;99.90;;;;;;5094409;28;20039;-78
2023/12/30 02:18:01;;;;;;;8.32;1.20;;;7.00;99.90;;;;;;5111760;28;20039;-78
2023/12/30 02:20:27;;;;;;;7.38;1.20;;;6.90;99.90;;;;;;5124462;27;20039;-78
2023/12/30 02:22:53;;;;;;;5.88;0.95;;;6.90;99.90;;;;;;5117360;28;20035;-79
2023/12/30 02:25:19;;;;;;;7.93;1.05;;;7.00;99.90;;;;;;5111537;28;20039;-78
2023/12/30 02:27:45;;;;;;;6.38;1.25;;;6.90;99.90;;;;;;5129266;28;20039;-78
2023/12/30 02:30:12;;;;;;;5.93;1.13;;;6.90;99.90;;;;;;5126968;27;20045;-78
2023/12/30 02:32:38;;;;;;;5.28;1.10;;;7.00;99.90;;;;;;5113356;27;20112;-78
2023/12/30 02:35:04;;;;;;;7.00;1.48;;;7.10;99.90;;;;;;5131839;27;20464;-79
2023/12/30 02:37:29;;;;;;;7.93;1.17;;;7.10;99.90;;;;;;5150156;27;20055;-79
2023/12/30 02:39:55;;;;;;;6.00;0.98;;;7.10;99.90;;;;;;5114477;28;20503;-79
2023/12/30 02:42:20;;;;;;;6.88;1.40;;;7.10;99.90;;;;;;5118499;27;20046;-79
2023/12/30 02:44:46;;;;;;;9.68;1.33;;;7.10;99.90;;;;;;5130803;27;20047;-78
2023/12/30 02:47:12;;;;;;;6.65;1.83;;;7.00;99.90;;;;;;5098261;28;20040;-79
2023/12/30 02:49:42;;;;;;;7.75;1.20;;;7.00;99.90;;;;;;5098282;28;20372;-78
2023/12/30 02:52:08;;;;;;;6.57;1.15;;;7.00;99.90;;;;;;5113321;27;20036;-79
2023/12/30 02:54:35;;;;;;;7.35;1.52;;;7.00;99.90;;;;;;5113668;27;20035;-78
2023/12/30 02:57:02;;;;;;;7.75;1.00;;;6.90;99.90;;;;;;5134889;27;20119;-78
2023/12/30 02:59:28;;;;;;;6.55;1.08;;;7.00;99.90;;;;;;5112924;27;20062;-78
2023/12/30 03:01:54;;;;;;;9.43;1.40;;;7.10;99.90;;;;;;5088653;28;20062;-79
2023/12/30 03:04:20;;;;;;;5.57;0.70;;;7.10;99.90;;;;;;5118901;27;20047;-79
2023/12/30 03:06:45;;;;;;;9.85;1.65;;;7.10;99.90;;;;;;5106882;27;20112;-78
2023/12/30 03:09:11;;;;;;;7.93;1.55;;;7.10;99.90;;;;;;5111520;27;20074;-79
2023/12/30 03:11:37;;;;;;;7.00;1.30;;;7.10;99.90;;;;;;5103042;27;20063;-78
2023/12/30 03:14:03;;;;;;;5.70;1.33;;;7.10;99.90;;;;;;5116984;27;20772;-78
2023/12/30 03:16:29;;;;;;;11.95;1.30;;;7.10;99.90;;;;;;5069147;28;20040;-78
2023/12/30 03:18:55;;;;;;;10.18;1.60;;;7.00;99.90;;;;;;5103459;27;20454;-79
2023/12/30 03:21:21;;;;;;;6.38;1.08;;;7.10;99.90;;;;;;5110948;27;20605;-78
2023/12/30 03:23:47;;;;;;;7.32;1.17;;;7.00;99.90;;;;;;5119569;27;20035;-78
2023/12/30 03:26:13;;;;;;;12.60;1.73;;;7.00;99.90;;;;;;5126011;27;20579;-78
2023/12/30 03:28:38;;;;;;;7.47;1.35;;;7.00;99.90;;;;;;5119863;27;20070;-79
2023/12/30 03:31:06;;;;;;;3.08;0.82;;;6.90;99.90;;;;;;5102092;27;20054;-78
2023/12/30 03:33:32;;;;;;;5.40;1.42;;;7.00;99.90;;;;;;5100874;27;20091;-78
2023/12/30 03:35:58;;;;;;;1.95;0.80;;;7.10;99.90;;;;;;5114474;27;20369;-78
2023/12/30 03:38:24;;;;;;;8.20;1.27;;;7.10;99.90;;;;;;5107824;27;20032;-78
2023/12/30 03:40:50;;;;;;;5.53;0.98;;;7.00;99.90;;;;;;5088939;27;20032;-78
2023/12/30 03:43:16;;;;;;;4.97;1.13;;;6.90;99.90;;;;;;5136824;27;20051;-78
2023/12/30 03:45:42;;;;;;;7.03;1.10;;;7.00;99.90;;;;;;5128116;27;20031;-78
2023/12/30 03:48:08;;;;;;;7.28;1.13;;;6.90;99.90;;;;;;5104386;27;20035;-78
2023/12/30 03:50:36;;;;;;;7.97;1.40;;;6.90;99.90;;;;;;5096481;27;20548;-78
2023/12/30 03:53:03;;;;;;;7.65;1.50;;;6.80;99.90;;;;;;5111130;27;20579;-78
2023/12/30 03:55:28;;;;;;;12.88;1.45;;;6.80;99.90;;;;;;5122052;27;20070;-78
2023/12/30 03:57:54;;;;;;;6.05;0.90;;;6.90;99.90;;;;;;5120619;27;20052;-78
2023/12/30 04:00:20;;;;;;;7.40;1.30;;;6.90;99.90;;;;;;5088498;28;20121;-78
2023/12/30 04:02:47;;;;;;;5.28;1.25;;;6.90;99.90;;;;;;5120398;27;21309;-78
2023/12/30 04:05:13;;;;;;;8.43;2.25;;;7.00;99.90;;;;;;5108277;27;20511;-78
2023/12/30 04:07:38;;;;;;;8.85;1.42;;;6.90;99.90;;;;;;5122920;27;20671;-78
2023/12/30 04:10:05;;;;;;;9.45;2.22;;;6.80;99.90;;;;;;5106331;27;21735;-78
2023/12/30 04:12:32;;;;;;;10.50;1.98;;;6.80;99.90;;;;;;5089477;27;20040;-78
2023/12/30 04:14:58;;;;;;;5.88;1.10;;;6.90;99.90;;;;;;5096708;27;20059;-78
2023/12/30 04:17:23;;;;;;;7.43;1.30;;;6.90;99.90;;;;;;5084828;27;20427;-78
2023/12/30 04:19:49;;;;;;;7.88;2.03;;;6.80;99.90;;;;;;5118884;27;20044;-78
2023/12/30 04:22:15;;;;;;;6.72;1.60;;;6.80;99.90;;;;;;5089127;27;20068;-78
2023/12/30 04:24:40;;;;;;;9.13;1.70;;;7.00;99.90;;;;;;5074611;28;20055;-78
2023/12/30 04:27:06;;;;;;;7.75;1.23;;;6.90;99.90;;;;;;5085337;27;20035;-78
2023/12/30 04:29:31;;;;;;;5.75;0.82;;;6.90;99.90;;;;;;5116811;27;20039;-78
2023/12/30 04:31:57;;;;;;;10.88;2.92;;;6.90;99.90;;;;;;5093335;27;20039;-80
2023/12/30 04:34:23;;;;;;;8.55;1.20;;;6.80;99.90;;;;;;5104610;27;20114;-78
2023/12/30 04:36:48;;;;;;;9.20;1.25;;;7.00;99.90;;;;;;5075787;28;20484;-78
2023/12/30 04:39:14;;;;;;;11.93;1.60;;;6.90;99.90;;;;;;5086902;27;20709;-78
2023/12/30 04:41:40;;;;;;;10.85;1.77;;;6.80;99.90;;;;;;5088273;27;20044;-78
2023/12/30 04:44:06;;;;;;;13.95;1.80;;;6.70;99.90;;;;;;5087479;27;20035;-78
2023/12/30 04:46:31;;;;;;;7.78;1.40;;;6.80;99.90;;;;;;5101312;27;20047;-78
2023/12/30 04:49:01;;;;;;;12.32;1.77;;;6.60;99.90;;;;;;5102253;27;20036;-78
2023/12/30 04:51:27;;;;;;;8.05;1.35;;;6.70;99.90;;;;;;5084983;27;20052;-78
2023/12/30 04:53:52;;;;;;;11.60;2.70;;;6.70;99.90;;;;;;5089824;27;20095;-78
2023/12/30 04:56:18;;;;;;;9.80;1.45;;;6.70;99.90;;;;;;5110995;27;20040;-78
2023/12/30 04:58:43;;;;;;;8.57;1.20;;;6.60;99.90;;;;;;5104607;27;20051;-78
2023/12/30 05:01:11;;;;;;;9.77;1.85;;;6.60;99.90;;;;;;5137417;27;20100;-78
2023/12/30 05:03:37;;;;;;;5.25;1.08;;;6.80;99.90;;;;;;5101673;27;20043;-78
2023/12/30 05:06:02;;;;;;;10.55;1.60;;;6.70;99.90;;;;;;5067582;28;20068;-78
2023/12/30 05:08:29;;;;;;;6.80;1.65;;;6.70;99.90;;;;;;5081727;27;20645;-78
2023/12/30 05:10:55;;;;;;;6.47;1.25;;;6.80;99.90;;;;;;5104083;27;20043;-79
2023/12/30 05:13:21;;;;;;;9.75;1.40;;;6.80;99.90;;;;;;5078694;27;20441;-78
2023/12/30 05:15:46;;;;;;;8.80;1.45;;;6.70;99.90;;;;;;5109144;27;20122;-78
2023/12/30 05:18:12;;;;;;;10.93;1.42;;;6.70;99.90;;;;;;5121268;27;20484;-78
2023/12/30 05:20:38;;;;;;;7.40;1.15;;;6.80;99.90;;;;;;5117548;27;20032;-78
2023/12/30 05:23:03;;;;;;;9.23;1.98;;;6.80;99.90;;;;;;5121534;27;20038;-78
2023/12/30 05:25:29;;;;;;;14.40;1.92;;;6.80;99.90;;;;;;5121389;27;20044;-78
2023/12/30 05:27:55;;;;;;;9.50;1.10;;;6.70;99.90;;;;;;5077646;28;20492;-78
2023/12/30 05:30:21;;;;;;;9.13;1.40;;;6.70;99.90;;;;;;5108286;27;20040;-78
2023/12/30 05:32:46;;;;;;;14.98;2.20;;;6.60;99.90;;;;;;5079112;28;20055;-78
2023/12/30 05:35:12;;;;;;;2.47;0.98;;;6.60;99.90;;;;;;5067131;28;20047;-78
2023/12/30 05:37:38;;;;;;;14.07;1.60;;;6.60;99.90;;;;;;5102238;27;20063;-78
2023/12/30 05:40:07;;;;;;;8.13;1.85;;;6.70;99.90;;;;;;5103876;27;20040;-78
2023/12/30 05:42:33;;;;;;;7.50;1.55;;;6.80;99.90;;;;;;5100917;27;20044;-78
2023/12/30 05:44:59;;;;;;;11.90;2.00;;;6.80;99.90;;;;;;5087137;28;20036;-78
2023/12/30 05:47:24;;;;;;;9.48;1.92;;;6.80;99.90;;;;;;5118576;27;20088;-78
2023/12/30 05:49:50;;;;;;;9.40;1.33;;;6.70;99.90;;;;;;5123710;27;20507;-78
2023/12/30 05:52:15;;;;;;;8.60;1.50;;;6.90;99.90;;;;;;5069129;28;20075;-78
2023/12/30 05:54:41;;;;;;;7.90;1.23;;;6.80;99.90;;;;;;5083647;28;20047;-78
2023/12/30 05:57:07;;;;;;;8.02;1.52;;;6.70;99.90;;;;;;5118617;27;20048;-77
2023/12/30 05:59:32;;;;;;;5.35;1.05;;;6.80;99.90;;;;;;5098902;28;20060;-78
2023/12/30 06:01:58;;;;;;;9.43;1.00;;;6.70;99.90;;;;;;5131121;27;20140;-78
2023/12/30 06:04:25;;;;;;;12.63;1.75;;;6.60;99.90;;;;;;5125600;27;20461;-78
2023/12/30 06:06:51;;;;;;;13.05;1.55;;;6.60;99.90;;;;;;5103787;27;20039;-78
2023/12/30 06:09:17;;;;;;;9.95;1.27;;;6.60;99.90;;;;;;5101690;27;20138;-78
2023/12/30 06:11:42;;;;;;;8.63;1.40;;;6.70;99.90;;;;;;5133066;27;20051;-78
2023/12/30 06:14:08;;;;;;;13.13;1.50;;;6.70;99.90;;;;;;5103970;27;20469;-78
2023/12/30 06:16:34;;;;;;;10.23;1.90;;;6.70;99.90;;;;;;5116491;27;20134;-78
2023/12/30 06:19:00;;;;;;;7.45;1.30;;;6.70;99.90;;;;;;5073159;27;20036;-78
2023/12/30 06:21:25;;;;;;;10.40;1.42;;;6.60;99.90;;;;;;5113273;27;20051;-78
2023/12/30 06:23:51;;;;;;;8.20;1.50;;;6.70;99.90;;;;;;5093968;27;20039;-78
2023/12/30 06:26:17;;;;;;;12.15;1.55;;;6.60;99.90;;;;;;5092102;27;20559;-78
2023/12/30 06:28:42;;;;;;;6.57;1.05;;;6.60;99.90;;;;;;5090596;27;20044;-78
2023/12/30 06:31:08;;;;;;;12.00;2.22;;;6.80;99.90;;;;;;5110679;27;20062;-78
2023/12/30 06:33:33;;;;;;;9.45;1.80;;;6.80;99.90;;;;;;5107740;27;20118;-78
2023/12/30 06:35:59;;;;;;;11.00;2.08;;;6.70;99.90;;;;;;5121514;27;21439;-78
2023/12/30 06:38:25;;;;;;;10.02;1.40;;;6.70;99.90;;;;;;5109428;27;20040;-78
2023/12/30 06:40:50;;;;;;;9.73;2.05;;;6.60;99.90;;;;;;5106714;27;20039;-78
2023/12/30 06:43:16;;;;;;;6.03;1.00;;;6.60;99.90;;;;;;5087806;27;20047;-78
2023/12/30 06:45:42;;;;;;;9.68;1.42;;;6.50;99.90;;;;;;5070451;27;20039;-78
2023/12/30 06:48:08;;;;;;;10.80;1.58;;;6.60;99.90;;;;;;5103421;27;20073;-78
2023/12/30 06:50:34;;;;;;;10.95;1.75;;;6.60;99.90;;;;;;5112984;27;20094;-78
2023/12/30 06:52:59;;;;;;;11.57;1.42;;;6.70;99.90;;;;;;5108894;27;20050;-78
2023/12/30 06:55:26;;;;;;;10.30;1.77;;;6.60;99.90;;;;;;5073515;27;20032;-78
2023/12/30 06:57:51;;;;;;;8.70;1.65;;;6.60;99.90;;;;;;5087747;27;20581;-78
2023/12/30 07:00:17;;;;;;;7.10;1.52;;;6.50;99.90;;;;;;5089983;27;20658;-78
2023/12/30 07:02:44;;;;;;;11.18;1.83;;;6.50;99.90;;;;;;5125872;27;20126;-79
2023/12/30 07:05:10;;;;;;;8.93;1.60;;;6.50;99.90;;;;;;5106725;27;20048;-78
2023/12/30 07:07:35;;;;;;;5.45;1.50;;;6.60;99.90;;;;;;5105952;27;20106;-78
2023/12/30 07:10:03;;;;;;;5.18;1.30;;;6.80;99.90;;;;;;5083289;27;20040;-78
2023/12/30 07:12:29;;;;;;;11.77;1.63;;;6.80;99.90;;;;;;5126772;27;20051;-78
2023/12/30 07:14:54;;;;;;;7.20;1.42;;;6.60;99.90;;;;;;5102352;27;20121;-78
2023/12/30 07:17:20;;;;;;;10.93;1.65;;;6.50;99.90;;;;;;5072762;27;20035;-78
2023/12/30 07:19:46;;;;;;;12.05;1.40;;;6.50;99.90;;;;;;5114446;27;20073;-78
2023/12/30 07:22:12;;;;;;;10.85;1.35;;;6.50;99.90;;;;;;5071637;28;20066;-78
2023/12/30 07:24:38;;;;;;;9.38;1.95;;;6.40;99.90;;;;;;5099827;27;20032;-78
2023/12/30 07:27:04;;;;;;;6.78;1.27;;;6.30;99.90;;;;;;5093432;27;20480;-78
2023/12/30 07:29:30;;;;;;;13.57;1.73;;;6.30;99.90;;;;;;5090479;27;20044;-78
2023/12/30 07:31:56;;;;;;;10.55;1.50;;;6.40;99.90;;;;;;5114821;27;20180;-77
2023/12/30 07:34:21;;;;;;;5.80;1.25;;;6.40;99.90;;;;;;5106488;27;20044;-78
2023/12/30 07:36:48;;;;;;;7.93;1.73;;;6.50;99.90;;;;;;5085572;27;20131;-77
2023/12/30 07:39:13;;;;;;;9.60;1.63;;;6.60;99.90;;;;;;5102151;27;20063;-78
2023/12/30 07:41:39;;;;;;;12.73;2.00;;;6.60;99.90;;;;;;5075445;28;21028;-78
2023/12/30 07:44:05;;;;;;;11.00;1.73;;;6.50;99.90;;;;;;5082934;28;20040;-78
2023/12/30 07:46:31;;;;;;;8.23;1.40;;;6.70;99.90;;;;;;5118467;27;20384;-78
2023/12/30 07:48:57;;;;;;;11.88;1.52;;;6.60;99.90;;;;;;5108223;27;20035;-78
2023/12/30 07:51:23;;;;;;;5.38;0.93;;;6.50;99.90;;;;;;5075586;27;20027;-78
2023/12/30 07:53:49;;;;;;;12.57;1.63;;;6.70;99.90;;;;;;5125697;27;20507;-78
2023/12/30 07:56:16;;;;;;;14.43;1.83;;;6.70;99.90;;;;;;5126197;27;20078;-77
2023/12/30 07:58:42;;;;;;;9.50;1.60;;;6.80;99.90;;;;;;5128637;27;20083;-78
2023/12/30 08:01:08;;;;;;;8.65;1.58;;;6.60;99.90;;;;;;5108718;28;20061;-78
2023/12/30 08:03:33;;;;;;;8.63;1.58;;;6.60;99.90;;;;;;5112297;27;20483;-84
2023/12/30 08:05:59;;;;;;;10.52;2.00;;;6.60;99.90;;;;;;5092691;28;20047;-78
2023/12/30 08:08:25;;;;;;;9.38;2.58;;;6.70;99.90;;;;;;5092118;28;20412;-77
2023/12/30 08:10:50;;;;;;;7.85;1.35;;;6.70;99.90;;;;;;5144112;27;20112;-77
2023/12/30 08:13:16;;;;;;;10.45;1.40;;;6.70;99.90;;;;;;5095636;28;20411;-77
2023/12/30 08:15:42;;;;;;;6.28;1.23;;;6.70;99.90;;;;;;5129638;27;20568;-77
2023/12/30 08:18:07;;;;;;;15.48;2.30;;;6.70;99.90;;;;;;5113439;28;20051;-77
2023/12/30 08:20:33;;;;;;;14.68;1.33;;;6.80;99.90;;;;;;5112269;28;20044;-77
2023/12/30 08:22:59;;;;;;;9.70;2.00;;;6.70;99.90;;;;;;5113040;28;20122;-77
2023/12/30 08:25:24;;;;;;;10.80;1.83;;;6.70;99.90;;;;;;5094291;28;20046;-77
2023/12/30 08:27:50;;;;;;;10.30;1.48;;;6.70;99.90;;;;;;5113268;28;20039;-77
2023/12/30 08:30:16;;;;;;;8.50;1.58;;;6.80;99.90;;;;;;5096393;28;20381;-77
2023/12/30 08:32:41;;;;;;;9.25;1.70;;;6.70;99.90;;;;;;5110275;28;20048;-77
2023/12/30 08:35:08;;;;;;;10.60;1.65;;;6.60;99.90;;;;;;5113085;28;20376;-77
2023/12/30 08:37:35;;;;;;;11.50;1.58;;;6.60;99.90;;;;;;5112169;28;20035;-77
2023/12/30 08:40:05;;;;;;;11.38;2.10;;;6.60;99.90;;;;;;5113142;28;20043;-77
2023/12/30 08:42:34;;;;;;;7.32;1.77;;;6.60;99.90;;;;;;5094731;28;20075;-77
2023/12/30 08:45:00;;;;;;;9.13;1.60;;;6.60;99.90;;;;;;5092556;27;20039;-86
2023/12/30 08:47:28;;;;;;;9.77;2.08;;;6.50;99.90;;;;;;5142926;27;20085;-78
2023/12/30 08:49:54;;;;;;;7.78;1.25;;;6.60;99.90;;;;;;5116027;27;20505;-78
2023/12/30 08:52:20;;;;;;;7.18;1.55;;;6.60;99.90;;;;;;5126383;27;20127;-78
2023/12/30 08:54:46;;;;;;;7.35;1.20;;;6.70;99.90;;;;;;5096185;28;20035;-78
2023/12/30 08:57:11;;;;;;;9.70;1.85;;;6.70;99.90;;;;;;5111208;28;20034;-79
2023/12/30 08:59:38;;;;;;;10.40;1.80;;;6.70;99.90;;;;;;5095442;28;20459;-78
2023/12/30 09:02:04;;;;;;;7.93;2.08;;;6.80;99.90;;;;;;5111042;28;20114;-78
2023/12/30 09:04:30;;;;;;;13.88;2.13;;;6.70;99.90;;;;;;5146452;27;20130;-78
2023/12/30 09:06:56;;;;;;;11.73;2.70;;;6.80;99.90;;;;;;5094494;28;20499;-78
2023/12/30 09:09:22;;;;;;;11.25;1.25;;;6.80;99.90;;;;;;5096101;27;20047;-78
2023/12/30 09:11:47;;;;;;;7.43;1.00;;;6.70;99.90;;;;;;5130289;27;20039;-78
2023/12/30 09:14:13;;;;;;;10.05;1.02;;;6.90;99.90;;;;;;5110199;28;20032;-78
2023/12/30 09:16:39;;;;;;;9.32;1.60;;;7.00;99.90;;;;;;5112446;28;20193;-78
2023/12/30 09:19:04;;;;;;;13.27;1.75;;;6.90;99.90;;;;;;5093143;28;20036;-78
2023/12/30 09:21:30;;;;;;;8.35;2.03;;;6.80;99.90;;;;;;5128067;27;20544;-78
2023/12/30 09:23:57;;;;;;;5.45;1.45;;;6.90;99.90;;;;;;5145287;27;20411;-78
2023/12/30 09:26:22;;;;;;;6.03;1.05;;;6.90;99.90;;;;;;5112441;28;20491;-78
2023/12/30 09:28:48;;;;;;;6.00;1.45;;;6.90;99.90;;;;;;5094321;28;20043;-78
2023/12/30 09:31:13;;;;;;;10.10;1.58;;;6.90;99.90;;;;;;5098681;28;20039;-78
2023/12/30 09:33:39;;;;;;;6.03;1.05;;;6.90;99.90;;;;;;5094712;28;20447;-78
2023/12/30 09:36:06;;;;;;;7.38;1.33;;;6.90;99.90;;;;;;5128996;28;20507;-78
2023/12/30 09:38:31;;;;;;;10.57;1.67;;;7.00;99.90;;;;;;5094258;28;20035;-78
2023/12/30 09:40:57;;;;;;;6.18;1.00;;;7.00;99.90;;;;;;5096419;28;20028;-78
2023/12/30 09:43:26;;;;;;;7.60;1.50;;;7.10;99.90;;;;;;5112413;28;20043;-78
2023/12/30 09:45:52;;;;;;;9.57;1.15;;;7.10;99.90;;;;;;5097709;28;20043;-78
2023/12/30 09:48:27;;;;;;;2.80;1.20;;;7.20;99.90;;;;;;5098207;28;20048;-78
2023/12/30 09:50:56;;;;;;;8.82;1.35;;;7.20;99.90;;;;;;5117512;27;20070;-78
2023/12/30 09:53:26;;;;;;;5.55;1.08;;;7.30;99.90;;;;;;5130237;27;20038;-78
2023/12/30 09:55:53;;;;;;;8.15;1.33;;;7.30;99.90;;;;;;5112788;27;21861;-78
2023/12/30 09:58:20;;;;;;;5.63;1.25;;;7.30;99.90;;;;;;5114988;28;20050;-78
2023/12/30 10:00:46;;;;;;;7.55;1.55;;;7.20;99.90;;;;;;5128177;27;20036;-77
2023/12/30 10:03:13;;;;;;;7.13;1.88;;;7.20;99.90;;;;;;5107839;28;20047;-78
2023/12/30 10:05:39;;;;;;;8.27;1.92;;;7.10;99.90;;;;;;5146221;27;20035;-78
2023/12/30 10:08:05;;;;;;;8.18;1.90;;;7.10;99.90;;;;;;5114640;28;20043;-78
2023/12/30 10:10:44;;;;;;;11.52;3.05;;;7.00;99.90;;;;;;5113372;28;20078;-78
2023/12/30 10:13:11;;;;;;;10.57;1.85;;;7.10;99.90;;;;;;5126989;27;20027;-78
2023/12/30 10:15:39;;;;;;;11.65;2.13;;;7.10;99.90;;;;;;5125914;27;20043;-78
2023/12/30 10:18:07;;;;;;;6.55;1.45;;;7.10;99.90;;;;;;5097547;28;20031;-78
2023/12/30 10:20:34;;;;;;;8.02;1.83;;;7.20;99.90;;;;;;5094018;28;20063;-78
2023/12/30 10:23:00;;;;;;;10.77;1.73;;;7.20;99.90;;;;;;5108177;28;20404;-78
2023/12/30 10:25:25;;;;;;;2.40;1.42;;;7.30;99.90;;;;;;5135243;27;20039;-78
2023/12/30 10:27:51;;;;;;;6.47;1.15;;;7.30;99.90;;;;;;5126399;27;20043;-78
2023/12/30 10:30:19;;;;;;;9.10;1.33;;;7.30;99.90;;;;;;5131345;27;20044;-78
2023/12/30 10:32:46;;;;;;;6.28;1.50;;;7.30;99.90;;;;;;5109149;28;20407;-77
2023/12/30 10:35:13;;;;;;;4.78;0.73;;;7.30;99.90;;;;;;5113172;28;20036;-78
2023/12/30 10:37:40;;;;;;;7.07;1.15;;;7.40;99.90;;;;;;5131253;27;20031;-78
2023/12/30 10:40:07;;;;;;;7.40;1.33;;;7.40;99.90;;;;;;5131583;27;20043;-78
2023/12/30 10:42:33;;;;;;;10.48;1.40;;;7.40;99.90;;;;;;5128525;27;20035;-78
2023/12/30 10:44:58;;;;;;;5.45;1.05;;;7.40;99.90;;;;;;5107353;28;20048;-78
2023/12/30 10:47:26;;;;;;;4.78;0.77;;;7.40;99.90;;;;;;5129327;27;20092;-78
2023/12/30 10:49:54;;;;;;;7.68;1.65;;;7.40;99.90;;;;;;5104749;28;20039;-78
2023/12/30 10:52:26;;;;;;;10.20;1.63;;;7.40;99.90;;;;;;5112567;28;20086;-79
2023/12/30 10:55:01;;;;;;;5.22;0.80;;;7.50;99.90;;;;;;5129048;27;20063;-78
2023/12/30 10:57:31;;;;;;;4.07;0.82;;;7.60;99.90;;;;;;5097736;28;20039;-79
2023/12/30 10:59:59;;;;;;;9.77;1.65;;;7.60;99.90;;;;;;5113221;28;20052;-78
2023/12/30 11:02:25;;;;;;;3.28;0.93;;;7.60;99.90;;;;;;5090290;28;20036;-78
2023/12/30 11:04:52;;;;;;;7.75;1.30;;;7.60;99.90;;;;;;5112541;28;20096;-78
2023/12/30 11:07:20;;;;;;;5.85;1.30;;;7.70;99.90;;;;;;5113479;28;20055;-78
2023/12/30 11:09:47;;;;;;;7.43;1.17;;;7.80;99.90;;;;;;5096764;28;20411;-78
2023/12/30 11:12:13;;;;;;;6.15;1.20;;;7.80;99.90;;;;;;5124807;27;20043;-78
2023/12/30 11:14:39;;;;;;;6.90;1.15;;;7.80;99.90;;;;;;5125672;27;20548;-78
2023/12/30 11:17:04;;;;;;;4.13;1.33;;;7.80;99.90;;;;;;5114647;28;20444;-79
2023/12/30 11:19:31;;;;;;;6.00;1.08;;;7.80;99.90;;;;;;5088816;28;20127;-78
2023/12/30 11:22:04;;;;;;;7.18;1.10;;;7.80;99.90;;;;;;5093850;28;20043;-79
2023/12/30 11:24:30;;;;;;;6.32;1.45;;;7.80;99.90;;;;;;5130084;27;20369;-79
2023/12/30 11:26:56;;;;;;;8.90;1.90;;;7.80;99.90;;;;;;5148954;27;20069;-78
2023/12/30 11:29:28;;;;;;;6.57;1.40;;;7.80;99.90;;;;;;5114140;28;20155;-78
2023/12/30 11:31:56;;;;;;;5.53;1.10;;;7.80;99.90;;;;;;5114097;28;20052;-78
2023/12/30 11:34:24;;;;;;;4.00;1.33;;;7.90;99.90;;;;;;5111624;28;20042;-79
2023/12/30 11:36:51;;;;;;;9.00;1.63;;;7.90;99.90;;;;;;5111937;27;20573;-78
2023/12/30 11:39:28;;;;;;;9.50;1.88;;;7.90;99.90;;;;;;5095726;27;20039;-78
2023/12/30 11:41:56;;;;;;;6.25;1.80;;;7.90;99.90;;;;;;5110619;28;20122;-78
2023/12/30 11:44:22;;;;;;;10.10;2.58;;;7.90;99.90;;;;;;5145113;27;20118;-78
2023/12/30 11:46:48;;;;;;;5.55;1.30;;;7.90;99.90;;;;;;5091692;28;20044;-78
2023/12/30 11:49:21;;;;;;;8.75;1.83;;;7.90;99.90;;;;;;5146935;27;20031;-79
2023/12/30 11:51:48;;;;;;;8.02;2.22;;;8.00;99.90;;;;;;5108754;28;20036;-79
2023/12/30 11:54:13;;;;;;;6.80;1.90;;;8.00;99.90;;;;;;5128633;27;20028;-78
2023/12/30 11:56:40;;;;;;;7.72;1.90;;;8.00;99.90;;;;;;5107896;28;20092;-78
2023/12/30 11:59:07;;;;;;;12.80;1.92;;;8.00;99.90;;;;;;5130426;27;20106;-78
2023/12/30 12:01:32;;;;;;;9.75;1.80;;;8.00;99.90;;;;;;5130148;27;20059;-78
2023/12/30 12:03:58;;;;;;;8.68;1.52;;;8.00;99.90;;;;;;5107815;28;20024;-79
2023/12/30 12:06:23;;;;;;;9.02;1.50;;;7.90;99.90;;;;;;5083800;28;20113;-78
2023/12/30 12:08:49;;;;;;;9.63;1.73;;;7.90;99.90;;;;;;5095201;28;20422;-78
2023/12/30 12:11:15;;;;;;;11.55;1.88;;;7.90;99.90;;;;;;5113219;27;20090;-78
2023/12/30 12:13:40;;;;;;;11.20;2.15;;;7.90;99.90;;;;;;5120583;27;20039;-78
2023/12/30 12:16:07;;;;;;;9.63;2.13;;;7.90;99.90;;;;;;5126062;27;20039;-78
2023/12/30 12:18:32;;;;;;;8.32;2.20;;;7.90;99.90;;;;;;5109861;27;20039;-78
2023/12/30 12:21:03;;;;;;;6.72;1.75;;;7.90;99.90;;;;;;5110236;28;20381;-78
2023/12/30 12:23:28;;;;;;;9.07;2.28;;;8.00;99.90;;;;;;5111715;28;20031;-78
2023/12/30 12:25:54;;;;;;;12.43;2.10;;;8.00;99.90;;;;;;5127291;27;21320;-78
2023/12/30 12:28:22;;;;;;;12.55;2.95;;;8.00;99.90;;;;;;5092251;28;20069;-78
2023/12/30 12:30:48;;;;;;;7.13;2.00;;;8.00;99.90;;;;;;5093118;28;20065;-79
2023/12/30 12:33:13;;;;;;;6.75;1.40;;;8.10;99.90;;;;;;5095989;28;20489;-79
2023/12/30 12:35:39;;;;;;;6.47;1.90;;;8.20;99.90;;;;;;5144800;27;20038;-78
2023/12/30 12:38:05;;;;;;;9.30;2.08;;;8.20;99.90;;;;;;5140560;27;20032;-78
2023/12/30 12:40:32;;;;;;;5.18;1.77;;;8.10;99.90;;;;;;5096325;28;20085;-78
2023/12/30 12:42:58;;;;;;;11.05;1.98;;;8.20;99.90;;;;;;5119550;27;20028;-78
2023/12/30 12:45:24;;;;;;;8.75;1.70;;;8.30;99.90;;;;;;5123684;27;20052;-78
2023/12/30 12:47:49;;;;;;;9.43;2.22;;;8.30;99.90;;;;;;5084404;28;20182;-79
2023/12/30 12:50:15;;;;;;;7.18;1.38;;;8.30;99.90;;;;;;5096385;28;20043;-78